sensor_id;sensor_type;location;lat;lon;timestamp;pressure;altitude;pressure_sealevel;temperature;humidity
15193;BME280;7697;51.630;7.484;2023-01-16T00:01:24;99018.84;;;6.61;94.10
15193;BME280;7697;51.630;7.484;2023-01-16T00:06:26;99000.47;;;6.55;94.40
15193;BME280;7697;51.630;7.484;2023-01-16T00:11:29;98993.59;;;6.54;95.11
15193;BME280;7697;51.630;7.484;2023-01-16T00:16:30;98982.25;;;6.53;95.84
15193;BME280;7697;51.630;7.484;2023-01-16T00:21:32;98967.88;;;6.56;94.70
15193;BME280;7697;51.630;7.484;2023-01-16T00:26:35;98958.19;;;6.56;95.74
15193;BME280;7697;51.630;7.484;2023-01-16T00:31:37;98944.44;;;6.54;95.23
15193;BME280;7697;51.630;7.484;2023-01-16T00:36:39;98924.00;;;6.56;95.85
15193;BME280;7697;51.630;7.484;2023-01-16T00:41:42;98927.22;;;6.58;95.39
15193;BME280;7697;51.630;7.484;2023-01-16T00:46:43;98926.81;;;6.61;94.61
15193;BME280;7697;51.630;7.484;2023-01-16T00:51:45;98904.56;;;6.57;95.40
15193;BME280;7697;51.630;7.484;2023-01-16T00:56:48;98902.31;;;6.61;94.83
15193;BME280;7697;51.630;7.484;2023-01-16T01:01:50;98900.31;;;6.56;94.07
15193;BME280;7697;51.630;7.484;2023-01-16T01:06:51;98892.63;;;6.55;94.06
15193;BME280;7697;51.630;7.484;2023-01-16T01:11:55;98893.31;;;6.50;94.55
15193;BME280;7697;51.630;7.484;2023-01-16T01:16:57;98882.41;;;6.47;94.60
15193;BME280;7697;51.630;7.484;2023-01-16T01:21:59;98881.16;;;6.49;93.65
15193;BME280;7697;51.630;7.484;2023-01-16T01:27:02;98884.41;;;6.51;93.93
15193;BME280;7697;51.630;7.484;2023-01-16T01:32:04;98886.00;;;6.52;94.22
15193;BME280;7697;51.630;7.484;2023-01-16T01:37:07;98873.44;;;6.54;94.05
15193;BME280;7697;51.630;7.484;2023-01-16T01:42:11;98865.72;;;6.59;93.54
15193;BME280;7697;51.630;7.484;2023-01-16T01:47:32;98853.16;;;6.61;93.82
15193;BME280;7697;51.630;7.484;2023-01-16T01:52:35;98849.13;;;6.59;93.29
15193;BME280;7697;51.630;7.484;2023-01-16T01:57:40;98843.47;;;6.55;92.96
15193;BME280;7697;51.630;7.484;2023-01-16T02:02:48;98828.97;;;6.53;93.34
15193;BME280;7697;51.630;7.484;2023-01-16T02:07:52;98812.22;;;6.47;93.26
15193;BME280;7697;51.630;7.484;2023-01-16T02:12:57;98794.50;;;6.36;93.56
15193;BME280;7697;51.630;7.484;2023-01-16T02:17:58;98792.75;;;6.30;93.66
15193;BME280;7697;51.630;7.484;2023-01-16T02:29:55;98767.03;;;6.14;93.57
15193;BME280;7697;51.630;7.484;2023-01-16T02:35:21;98751.88;;;6.09;93.42
15193;BME280;7697;51.630;7.484;2023-01-16T02:40:35;98745.69;;;6.03;94.01
15193;BME280;7697;51.630;7.484;2023-01-16T02:45:43;98739.69;;;5.96;94.28
15193;BME280;7697;51.630;7.484;2023-01-16T02:50:53;98729.59;;;5.93;94.20
15193;BME280;7697;51.630;7.484;2023-01-16T02:56:01;98715.44;;;5.94;94.20
15193;BME280;7697;51.630;7.484;2023-01-16T03:01:09;98707.56;;;5.94;94.23
15193;BME280;7697;51.630;7.484;2023-01-16T03:06:26;98686.63;;;5.88;94.34
15193;BME280;7697;51.630;7.484;2023-01-16T03:11:30;98689.25;;;5.88;94.72
15193;BME280;7697;51.630;7.484;2023-01-16T03:16:47;98680.13;;;5.84;94.50
15193;BME280;7697;51.630;7.484;2023-01-16T03:22:02;98674.69;;;5.85;94.66
15193;BME280;7697;51.630;7.484;2023-01-16T03:27:12;98663.16;;;5.86;95.45
15193;BME280;7697;51.630;7.484;2023-01-16T03:32:23;98664.13;;;5.92;94.86
15193;BME280;7697;51.630;7.484;2023-01-16T03:37:34;98653.06;;;5.90;95.27
15193;BME280;7697;51.630;7.484;2023-01-16T03:42:44;98636.63;;;5.94;94.87
15193;BME280;7697;51.630;7.484;2023-01-16T03:47:52;98637.22;;;5.96;95.43
15193;BME280;7697;51.630;7.484;2023-01-16T03:53:02;98619.66;;;5.97;95.92
15193;BME280;7697;51.630;7.484;2023-01-16T03:58:09;98598.84;;;5.95;95.50
15193;BME280;7697;51.630;7.484;2023-01-16T04:03:19;98592.78;;;5.95;94.82
15193;BME280;7697;51.630;7.484;2023-01-16T04:08:27;98585.78;;;5.89;95.93
15193;BME280;7697;51.630;7.484;2023-01-16T04:13:33;98572.44;;;5.84;95.65
15193;BME280;7697;51.630;7.484;2023-01-16T04:18:36;98554.16;;;5.77;96.64
15193;BME280;7697;51.630;7.484;2023-01-16T04:23:39;98555.38;;;5.75;95.93
15193;BME280;7697;51.630;7.484;2023-01-16T04:28:42;98528.97;;;5.70;95.81
15193;BME280;7697;51.630;7.484;2023-01-16T04:33:43;98521.19;;;5.63;96.13
15193;BME280;7697;51.630;7.484;2023-01-16T04:38:46;98508.88;;;5.63;96.50
15193;BME280;7697;51.630;7.484;2023-01-16T04:43:48;98500.75;;;5.65;96.07
15193;BME280;7697;51.630;7.484;2023-01-16T04:48:49;98489.81;;;5.68;96.43
15193;BME280;7697;51.630;7.484;2023-01-16T04:53:52;98468.81;;;5.68;96.71
15193;BME280;7697;51.630;7.484;2023-01-16T04:58:54;98456.06;;;5.72;96.31
15193;BME280;7697;51.630;7.484;2023-01-16T05:03:56;98449.09;;;5.77;96.74
15193;BME280;7697;51.630;7.484;2023-01-16T05:08:59;98433.94;;;5.79;96.20
15193;BME280;7697;51.630;7.484;2023-01-16T05:14:03;98425.59;;;5.82;96.35
15193;BME280;7697;51.630;7.484;2023-01-16T05:19:08;98402.66;;;5.78;96.20
15193;BME280;7697;51.630;7.484;2023-01-16T05:24:11;98387.69;;;5.78;96.67
15193;BME280;7697;51.630;7.484;2023-01-16T05:29:12;98372.16;;;5.77;96.52
15193;BME280;7697;51.630;7.484;2023-01-16T05:34:14;98360.47;;;5.73;96.43
15193;BME280;7697;51.630;7.484;2023-01-16T05:39:17;98344.50;;;5.74;95.83
15193;BME280;7697;51.630;7.484;2023-01-16T05:44:19;98338.22;;;5.75;96.17
15193;BME280;7697;51.630;7.484;2023-01-16T05:49:20;98328.84;;;5.68;96.27
15193;BME280;7697;51.630;7.484;2023-01-16T05:54:23;98321.78;;;5.68;96.30
15193;BME280;7697;51.630;7.484;2023-01-16T05:59:25;98312.88;;;5.69;96.46
15193;BME280;7697;51.630;7.484;2023-01-16T06:04:27;98294.13;;;5.65;96.12
15193;BME280;7697;51.630;7.484;2023-01-16T06:09:30;98289.56;;;5.61;96.50
15193;BME280;7697;51.630;7.484;2023-01-16T06:14:31;98272.66;;;5.57;96.14
15193;BME280;7697;51.630;7.484;2023-01-16T06:19:33;98263.63;;;5.53;96.77
15193;BME280;7697;51.630;7.484;2023-01-16T06:24:36;98251.97;;;5.49;96.90
15193;BME280;7697;51.630;7.484;2023-01-16T06:29:38;98233.59;;;5.49;96.59
15193;BME280;7697;51.630;7.484;2023-01-16T06:34:40;98214.91;;;5.45;96.37
15193;BME280;7697;51.630;7.484;2023-01-16T06:39:43;98193.66;;;5.47;96.50
15193;BME280;7697;51.630;7.484;2023-01-16T06:44:44;98181.91;;;5.49;96.27
15193;BME280;7697;51.630;7.484;2023-01-16T06:49:46;98169.81;;;5.48;96.87
15193;BME280;7697;51.630;7.484;2023-01-16T06:54:49;98162.50;;;5.50;96.57
15193;BME280;7697;51.630;7.484;2023-01-16T06:59:51;98154.19;;;5.53;96.57
15193;BME280;7697;51.630;7.484;2023-01-16T07:04:52;98142.09;;;5.64;96.23
15193;BME280;7697;51.630;7.484;2023-01-16T07:09:55;98129.09;;;5.69;95.58
15193;BME280;7697;51.630;7.484;2023-01-16T07:14:57;98110.47;;;5.82;95.38
15193;BME280;7697;51.630;7.484;2023-01-16T07:20:16;98095.63;;;5.99;94.97
15193;BME280;7697;51.630;7.484;2023-01-16T07:25:37;98090.03;;;6.08;93.96
15193;BME280;7697;51.630;7.484;2023-01-16T07:30:38;98068.97;;;6.19;93.08
15193;BME280;7697;51.630;7.484;2023-01-16T07:35:40;98060.72;;;6.27;92.68
15193;BME280;7697;51.630;7.484;2023-01-16T07:40:44;98051.69;;;6.35;92.28
15193;BME280;7697;51.630;7.484;2023-01-16T07:45:46;98034.41;;;6.39;91.71
15193;BME280;7697;51.630;7.484;2023-01-16T07:50:53;98020.88;;;6.47;91.03
15193;BME280;7697;51.630;7.484;2023-01-16T07:55:59;97998.25;;;6.46;91.12
15193;BME280;7697;51.630;7.484;2023-01-16T08:01:01;97992.94;;;6.58;90.45
15193;BME280;7697;51.630;7.484;2023-01-16T08:06:03;97976.59;;;6.56;90.54
15193;BME280;7697;51.630;7.484;2023-01-16T08:11:06;97975.31;;;6.58;91.21
15193;BME280;7697;51.630;7.484;2023-01-16T08:16:22;97975.78;;;6.55;91.25
15193;BME280;7697;51.630;7.484;2023-01-16T08:21:23;97951.66;;;6.58;90.74
15193;BME280;7697;51.630;7.484;2023-01-16T08:26:26;97919.66;;;6.61;90.44
15193;BME280;7697;51.630;7.484;2023-01-16T08:31:29;97906.00;;;6.64;90.83
15193;BME280;7697;51.630;7.484;2023-01-16T08:36:31;97891.66;;;6.72;90.51
15193;BME280;7697;51.630;7.484;2023-01-16T08:41:34;97872.28;;;6.78;89.46
15193;BME280;7697;51.630;7.484;2023-01-16T08:47:09;97863.50;;;6.72;90.77
15193;BME280;7697;51.630;7.484;2023-01-16T08:52:29;97853.38;;;6.81;90.29
15193;BME280;7697;51.630;7.484;2023-01-16T08:57:32;97832.03;;;6.77;90.70
15193;BME280;7697;51.630;7.484;2023-01-16T09:02:35;97835.34;;;6.68;92.56
15193;BME280;7697;51.630;7.484;2023-01-16T09:07:38;97808.00;;;6.69;92.40
15193;BME280;7697;51.630;7.484;2023-01-16T09:12:41;97800.25;;;6.62;93.36
15193;BME280;7697;51.630;7.484;2023-01-16T09:18:00;97791.91;;;6.65;93.38
15193;BME280;7697;51.630;7.484;2023-01-16T09:23:03;97772.94;;;6.63;92.96
15193;BME280;7697;51.630;7.484;2023-01-16T09:28:06;97756.88;;;6.60;93.48
15193;BME280;7697;51.630;7.484;2023-01-16T09:33:08;97752.41;;;6.60;92.91
15193;BME280;7697;51.630;7.484;2023-01-16T09:38:09;97746.41;;;6.65;92.10
15193;BME280;7697;51.630;7.484;2023-01-16T09:43:22;97752.22;;;6.67;92.38
15193;BME280;7697;51.630;7.484;2023-01-16T09:48:44;97734.22;;;6.81;91.63
15193;BME280;7697;51.630;7.484;2023-01-16T09:53:51;97737.38;;;6.77;91.96
15193;BME280;7697;51.630;7.484;2023-01-16T09:59:20;97722.19;;;6.85;92.09
15193;BME280;7697;51.630;7.484;2023-01-16T10:04:25;97713.25;;;6.86;91.26
15193;BME280;7697;51.630;7.484;2023-01-16T10:09:33;97699.34;;;6.90;90.54
15193;BME280;7697;51.630;7.484;2023-01-16T10:14:48;97689.09;;;6.89;91.36
15193;BME280;7697;51.630;7.484;2023-01-16T10:20:21;97677.47;;;6.85;90.99
15193;BME280;7697;51.630;7.484;2023-01-16T10:25:30;97681.16;;;6.84;91.13
15193;BME280;7697;51.630;7.484;2023-01-16T10:30:37;97658.50;;;6.83;90.88
15193;BME280;7697;51.630;7.484;2023-01-16T10:35:46;97643.78;;;6.82;91.81
15193;BME280;7697;51.630;7.484;2023-01-16T10:40:49;97637.72;;;6.81;90.45
15193;BME280;7697;51.630;7.484;2023-01-16T10:45:55;97635.41;;;6.85;91.33
15193;BME280;7697;51.630;7.484;2023-01-16T10:51:18;97626.81;;;6.94;89.91
15193;BME280;7697;51.630;7.484;2023-01-16T10:56:19;97629.44;;;6.94;89.41
15193;BME280;7697;51.630;7.484;2023-01-16T11:01:24;97609.44;;;6.93;89.72
15193;BME280;7697;51.630;7.484;2023-01-16T11:06:28;97587.56;;;6.88;90.55
15193;BME280;7697;51.630;7.484;2023-01-16T11:11:33;97557.03;;;6.87;89.22
15193;BME280;7697;51.630;7.484;2023-01-16T11:16:54;97548.13;;;6.88;89.95
15193;BME280;7697;51.630;7.484;2023-01-16T11:22:22;97537.69;;;6.98;88.73
15193;BME280;7697;51.630;7.484;2023-01-16T11:27:28;97545.94;;;7.16;88.99
15193;BME280;7697;51.630;7.484;2023-01-16T11:32:35;97523.19;;;7.32;87.57
15193;BME280;7697;51.630;7.484;2023-01-16T11:37:38;97513.44;;;7.33;87.03
15193;BME280;7697;51.630;7.484;2023-01-16T11:42:50;97483.72;;;7.37;86.66
15193;BME280;7697;51.630;7.484;2023-01-16T11:48:13;97487.75;;;7.50;85.52
15193;BME280;7697;51.630;7.484;2023-01-16T11:53:28;97490.63;;;7.48;85.26
15193;BME280;7697;51.630;7.484;2023-01-16T11:58:37;97473.78;;;7.54;84.81
15193;BME280;7697;51.630;7.484;2023-01-16T12:04:02;97472.75;;;7.61;84.83
15193;BME280;7697;51.630;7.484;2023-01-16T12:09:34;97452.22;;;7.58;85.12
15193;BME280;7697;51.630;7.484;2023-01-16T12:14:44;97439.63;;;7.70;84.63
15193;BME280;7697;51.630;7.484;2023-01-16T12:20:12;97409.88;;;7.74;85.12
15193;BME280;7697;51.630;7.484;2023-01-16T12:25:24;97398.03;;;7.77;84.46
15193;BME280;7697;51.630;7.484;2023-01-16T12:30:36;97379.84;;;7.65;84.72
15193;BME280;7697;51.630;7.484;2023-01-16T12:35:47;97371.13;;;7.60;84.18
15193;BME280;7697;51.630;7.484;2023-01-16T12:41:19;97359.78;;;7.54;84.99
15193;BME280;7697;51.630;7.484;2023-01-16T12:46:43;97355.56;;;7.53;85.36
15193;BME280;7697;51.630;7.484;2023-01-16T12:52:01;97351.91;;;7.59;85.67
15193;BME280;7697;51.630;7.484;2023-01-16T13:02:52;97298.75;;;7.77;85.14
15193;BME280;7697;51.630;7.484;2023-01-16T13:08:01;97296.13;;;7.93;83.98
15193;BME280;7697;51.630;7.484;2023-01-16T13:13:12;97284.50;;;7.88;83.50
15193;BME280;7697;51.630;7.484;2023-01-16T13:18:27;97266.34;;;7.77;84.28
15193;BME280;7697;51.630;7.484;2023-01-16T13:23:33;97269.75;;;7.72;83.92
15193;BME280;7697;51.630;7.484;2023-01-16T13:28:43;97253.44;;;7.60;84.35
15193;BME280;7697;51.630;7.484;2023-01-16T13:33:52;97256.06;;;7.60;84.27
15193;BME280;7697;51.630;7.484;2023-01-16T13:39:23;97247.88;;;7.62;84.24
15193;BME280;7697;51.630;7.484;2023-01-16T13:44:34;97234.47;;;7.53;86.83
15193;BME280;7697;51.630;7.484;2023-01-16T13:50:05;97223.66;;;7.39;88.86
15193;BME280;7697;51.630;7.484;2023-01-16T13:55:24;97217.06;;;7.22;90.14
15193;BME280;7697;51.630;7.484;2023-01-16T14:00:27;97207.31;;;7.12;91.15
15193;BME280;7697;51.630;7.484;2023-01-16T14:05:44;97189.16;;;7.05;90.49
15193;BME280;7697;51.630;7.484;2023-01-16T14:11:02;97182.56;;;7.03;91.13
15193;BME280;7697;51.630;7.484;2023-01-16T14:16:31;97177.84;;;7.05;90.21
15193;BME280;7697;51.630;7.484;2023-01-16T14:21:42;97165.44;;;6.95;90.53
15193;BME280;7697;51.630;7.484;2023-01-16T14:27:10;97157.56;;;7.00;90.53
15193;BME280;7697;51.630;7.484;2023-01-16T14:32:17;97147.81;;;7.01;90.66
15193;BME280;7697;51.630;7.484;2023-01-16T14:37:21;97142.03;;;6.99;89.78
15193;BME280;7697;51.630;7.484;2023-01-16T14:42:32;97137.56;;;6.94;91.13
15193;BME280;7697;51.630;7.484;2023-01-16T14:47:58;97136.50;;;6.95;90.42
15193;BME280;7697;51.630;7.484;2023-01-16T14:53:20;97124.41;;;6.94;90.31
15193;BME280;7697;51.630;7.484;2023-01-16T14:58:44;97123.09;;;6.92;91.24
15193;BME280;7697;51.630;7.484;2023-01-16T15:03:47;97117.31;;;6.95;91.00
15193;BME280;7697;51.630;7.484;2023-01-16T15:08:50;97123.63;;;6.89;92.32
15193;BME280;7697;51.630;7.484;2023-01-16T15:14:04;97102.56;;;6.84;92.03
15193;BME280;7697;51.630;7.484;2023-01-16T15:19:24;97101.50;;;6.74;93.68
15193;BME280;7697;51.630;7.484;2023-01-16T15:24:48;97103.06;;;6.65;93.83
15193;BME280;7697;51.630;7.484;2023-01-16T15:29:56;97100.44;;;6.60;95.10
15193;BME280;7697;51.630;7.484;2023-01-16T15:35:08;97088.84;;;6.56;95.16
15193;BME280;7697;51.630;7.484;2023-01-16T15:40:22;97076.22;;;6.48;96.14
15193;BME280;7697;51.630;7.484;2023-01-16T15:45:26;97080.69;;;6.43;96.38
15193;BME280;7697;51.630;7.484;2023-01-16T15:50:53;97070.16;;;6.43;96.95
15193;BME280;7697;51.630;7.484;2023-01-16T15:56:01;97066.22;;;6.40;97.46
15193;BME280;7697;51.630;7.484;2023-01-16T16:01:05;97054.38;;;6.37;97.17
15193;BME280;7697;51.630;7.484;2023-01-16T16:06:09;97038.34;;;6.34;97.32
15193;BME280;7697;51.630;7.484;2023-01-16T16:11:17;97028.88;;;6.38;97.59
15193;BME280;7697;51.630;7.484;2023-01-16T16:16:38;97028.63;;;6.39;97.76
15193;BME280;7697;51.630;7.484;2023-01-16T16:22:01;97023.38;;;6.39;97.53
15193;BME280;7697;51.630;7.484;2023-01-16T16:27:24;97015.50;;;6.39;98.30
15193;BME280;7697;51.630;7.484;2023-01-16T16:32:27;97001.84;;;6.43;97.97
15193;BME280;7697;51.630;7.484;2023-01-16T16:37:29;97011.31;;;6.44;98.25
15193;BME280;7697;51.630;7.484;2023-01-16T16:42:53;97002.38;;;6.50;97.35
15193;BME280;7697;51.630;7.484;2023-01-16T16:48:21;96996.31;;;6.49;97.50
15193;BME280;7697;51.630;7.484;2023-01-16T16:53:28;96996.84;;;6.51;97.93
15193;BME280;7697;51.630;7.484;2023-01-16T16:58:29;96993.97;;;6.53;97.75
15193;BME280;7697;51.630;7.484;2023-01-16T17:03:33;96987.13;;;6.52;97.66
15193;BME280;7697;51.630;7.484;2023-01-16T17:08:34;96993.19;;;6.52;97.05
15193;BME280;7697;51.630;7.484;2023-01-16T17:13:36;96999.97;;;6.53;97.49
15193;BME280;7697;51.630;7.484;2023-01-16T17:18:39;96985.78;;;6.54;97.85
15193;BME280;7697;51.630;7.484;2023-01-16T17:23:41;96985.78;;;6.54;98.31
15193;BME280;7697;51.630;7.484;2023-01-16T17:28:43;96986.59;;;6.55;98.27
15193;BME280;7697;51.630;7.484;2023-01-16T17:33:47;96986.88;;;6.58;98.67
15193;BME280;7697;51.630;7.484;2023-01-16T17:38:50;96984.75;;;6.55;98.64
15193;BME280;7697;51.630;7.484;2023-01-16T17:43:52;96977.41;;;6.52;98.10
15193;BME280;7697;51.630;7.484;2023-01-16T17:49:13;96970.03;;;6.54;99.10
15193;BME280;7697;51.630;7.484;2023-01-16T17:54:14;96976.63;;;6.52;98.68
15193;BME280;7697;51.630;7.484;2023-01-16T17:59:36;96968.19;;;6.50;99.03
15193;BME280;7697;51.630;7.484;2023-01-16T18:04:39;96976.59;;;6.47;99.30
15193;BME280;7697;51.630;7.484;2023-01-16T18:09:41;96967.13;;;6.46;99.74
15193;BME280;7697;51.630;7.484;2023-01-16T18:14:43;96975.31;;;6.44;100.00
15193;BME280;7697;51.630;7.484;2023-01-16T18:20:05;96978.44;;;6.46;100.00
15193;BME280;7697;51.630;7.484;2023-01-16T18:25:07;96982.91;;;6.46;100.00
15193;BME280;7697;51.630;7.484;2023-01-16T18:30:10;96982.09;;;6.45;100.00
15193;BME280;7697;51.630;7.484;2023-01-16T18:35:14;96973.19;;;6.41;100.00
15193;BME280;7697;51.630;7.484;2023-01-16T18:40:15;96982.38;;;6.38;99.90
15193;BME280;7697;51.630;7.484;2023-01-16T18:45:35;96980.28;;;6.40;100.00
15193;BME280;7697;51.630;7.484;2023-01-16T18:50:56;96983.44;;;6.43;100.00
15193;BME280;7697;51.630;7.484;2023-01-16T18:56:18;96987.09;;;6.36;100.00
15193;BME280;7697;51.630;7.484;2023-01-16T19:01:38;96993.13;;;6.37;100.00
15193;BME280;7697;51.630;7.484;2023-01-16T19:07:03;96985.78;;;6.34;100.00
15193;BME280;7697;51.630;7.484;2023-01-16T19:12:06;96986.06;;;6.32;100.00
15193;BME280;7697;51.630;7.484;2023-01-16T19:17:08;96984.22;;;6.33;100.00
15193;BME280;7697;51.630;7.484;2023-01-16T19:22:12;96992.09;;;6.38;100.00
15193;BME280;7697;51.630;7.484;2023-01-16T19:27:13;96990.00;;;6.35;100.00
15193;BME280;7697;51.630;7.484;2023-01-16T19:32:15;97003.41;;;6.33;100.00
15193;BME280;7697;51.630;7.484;2023-01-16T19:37:18;97005.75;;;6.30;100.00
15193;BME280;7697;51.630;7.484;2023-01-16T19:42:20;97005.75;;;6.30;100.00
15193;BME280;7697;51.630;7.484;2023-01-16T19:47:39;97016.78;;;6.32;100.00
15193;BME280;7697;51.630;7.484;2023-01-16T19:52:42;97004.16;;;6.29;100.00
15193;BME280;7697;51.630;7.484;2023-01-16T19:57:44;97003.13;;;6.30;100.00
15193;BME280;7697;51.630;7.484;2023-01-16T20:02:46;97012.31;;;6.27;100.00
15193;BME280;7697;51.630;7.484;2023-01-16T20:07:49;97006.53;;;6.30;100.00
15193;BME280;7697;51.630;7.484;2023-01-16T20:12:54;97012.06;;;6.34;100.00
15193;BME280;7697;51.630;7.484;2023-01-16T20:17:57;97017.31;;;6.34;100.00
15193;BME280;7697;51.630;7.484;2023-01-16T20:23:00;97018.91;;;6.35;100.00
15193;BME280;7697;51.630;7.484;2023-01-16T20:28:01;97033.59;;;6.36;100.00
15193;BME280;7697;51.630;7.484;2023-01-16T20:33:03;97043.31;;;6.35;100.00
15193;BME280;7697;51.630;7.484;2023-01-16T20:38:06;97038.06;;;6.35;100.00
15193;BME280;7697;51.630;7.484;2023-01-16T20:43:08;97028.09;;;6.32;100.00
15193;BME280;7697;51.630;7.484;2023-01-16T20:48:28;97044.66;;;6.33;100.00
15193;BME280;7697;51.630;7.484;2023-01-16T20:53:31;97055.69;;;6.35;100.00
15193;BME280;7697;51.630;7.484;2023-01-16T20:58:51;97060.94;;;6.35;100.00
15193;BME280;7697;51.630;7.484;2023-01-16T21:09:19;97071.44;;;6.25;100.00
15193;BME280;7697;51.630;7.484;2023-01-16T21:14:24;97073.22;;;6.19;100.00
15193;BME280;7697;51.630;7.484;2023-01-16T21:19:27;97076.09;;;6.18;100.00
15193;BME280;7697;51.630;7.484;2023-01-16T21:24:49;97080.59;;;6.17;100.00
15193;BME280;7697;51.630;7.484;2023-01-16T21:29:52;97097.09;;;6.08;100.00
15193;BME280;7697;51.630;7.484;2023-01-16T21:34:55;97113.88;;;5.96;100.00
15193;BME280;7697;51.630;7.484;2023-01-16T21:39:58;97130.56;;;5.80;100.00
15193;BME280;7697;51.630;7.484;2023-01-16T21:45:00;97131.78;;;5.73;100.00
15193;BME280;7697;51.630;7.484;2023-01-16T21:50:19;97144.09;;;5.62;100.00
15193;BME280;7697;51.630;7.484;2023-01-16T21:55:24;97150.31;;;5.56;100.00
15193;BME280;7697;51.630;7.484;2023-01-16T22:00:26;97166.34;;;5.54;100.00
15193;BME280;7697;51.630;7.484;2023-01-16T22:05:28;97168.91;;;5.49;100.00
15193;BME280;7697;51.630;7.484;2023-01-16T22:10:32;97187.03;;;5.51;100.00
15193;BME280;7697;51.630;7.484;2023-01-16T22:15:36;97189.34;;;5.47;100.00
15193;BME280;7697;51.630;7.484;2023-01-16T22:20:56;97201.69;;;5.47;100.00
15193;BME280;7697;51.630;7.484;2023-01-16T22:26:05;97209.53;;;5.42;100.00
15193;BME280;7697;51.630;7.484;2023-01-16T22:31:08;97239.97;;;5.43;100.00
15193;BME280;7697;51.630;7.484;2023-01-16T22:36:12;97233.84;;;5.32;100.00
15193;BME280;7697;51.630;7.484;2023-01-16T22:41:18;97254.59;;;5.34;100.00
15193;BME280;7697;51.630;7.484;2023-01-16T22:46:20;97255.31;;;5.29;100.00
15193;BME280;7697;51.630;7.484;2023-01-16T22:51:25;97256.56;;;5.21;100.00
15193;BME280;7697;51.630;7.484;2023-01-16T22:56:28;97267.09;;;5.26;100.00
15193;BME280;7697;51.630;7.484;2023-01-16T23:01:30;97287.81;;;5.28;100.00
15193;BME280;7697;51.630;7.484;2023-01-16T23:06:33;97285.47;;;5.26;100.00
15193;BME280;7697;51.630;7.484;2023-01-16T23:11:43;97297.00;;;5.25;100.00
15193;BME280;7697;51.630;7.484;2023-01-16T23:16:46;97299.09;;;5.28;100.00
15193;BME280;7697;51.630;7.484;2023-01-16T23:21:49;97295.97;;;5.26;100.00
15193;BME280;7697;51.630;7.484;2023-01-16T23:26:54;97313.56;;;5.31;100.00
15193;BME280;7697;51.630;7.484;2023-01-16T23:31:56;97326.44;;;5.33;100.00
15193;BME280;7697;51.630;7.484;2023-01-16T23:36:58;97329.63;;;5.35;100.00
15193;BME280;7697;51.630;7.484;2023-01-16T23:42:01;97330.66;;;5.34;100.00
15193;BME280;7697;51.630;7.484;2023-01-16T23:47:20;97338.53;;;5.34;100.00
15193;BME280;7697;51.630;7.484;2023-01-16T23:52:24;97352.19;;;5.36;100.00
15193;BME280;7697;51.630;7.484;2023-01-16T23:57:28;97348.53;;;5.37;100.00
